sensor_id;sensor_type;location;lat;lon;timestamp;pressure;altitude;pressure_sealevel;temperature;humidity
6565;BME280;3316;44.118;27.258;2023-03-13T00:01:51;101585.19;;;4.86;100.00
6565;BME280;3316;44.118;27.258;2023-03-13T00:04:17;101558.88;;;4.77;100.00
6565;BME280;3316;44.118;27.258;2023-03-13T00:06:42;101590.56;;;4.92;100.00
6565;BME280;3316;44.118;27.258;2023-03-13T00:09:10;101591.34;;;4.90;100.00
6565;BME280;3316;44.118;27.258;2023-03-13T00:11:36;101589.44;;;4.83;100.00
6565;BME280;3316;44.118;27.258;2023-03-13T00:14:03;101592.91;;;4.82;100.00
6565;BME280;3316;44.118;27.258;2023-03-13T00:16:29;101593.94;;;4.88;100.00
6565;BME280;3316;44.118;27.258;2023-03-13T00:18:56;101586.78;;;4.81;100.00
6565;BME280;3316;44.118;27.258;2023-03-13T00:21:23;101596.72;;;4.94;100.00
6565;BME280;3316;44.118;27.258;2023-03-13T00:23:49;101577.50;;;4.91;100.00
6565;BME280;3316;44.118;27.258;2023-03-13T00:26:17;101595.22;;;5.04;100.00
6565;BME280;3316;44.118;27.258;2023-03-13T00:28:44;101600.38;;;5.01;100.00
6565;BME280;3316;44.118;27.258;2023-03-13T00:33:38;101599.00;;;4.84;100.00
6565;BME280;3316;44.118;27.258;2023-03-13T00:36:06;101591.19;;;4.84;100.00
6565;BME280;3316;44.118;27.258;2023-03-13T00:38:32;101592.66;;;4.74;100.00
6565;BME280;3316;44.118;27.258;2023-03-13T00:41:06;101611.91;;;4.78;100.00
6565;BME280;3316;44.118;27.258;2023-03-13T00:43:33;101599.63;;;4.74;100.00
6565;BME280;3316;44.118;27.258;2023-03-13T00:45:59;101567.63;;;4.49;100.00
6565;BME280;3316;44.118;27.258;2023-03-13T00:48:25;101607.22;;;4.66;100.00
6565;BME280;3316;44.118;27.258;2023-03-13T00:50:51;101601.66;;;4.54;100.00
6565;BME280;3316;44.118;27.258;2023-03-13T00:53:16;101600.69;;;4.50;100.00
6565;BME280;3316;44.118;27.258;2023-03-13T00:56:01;101592.69;;;4.44;100.00
6565;BME280;3316;44.118;27.258;2023-03-13T00:58:29;101602.25;;;4.45;100.00
6565;BME280;3316;44.118;27.258;2023-03-13T01:00:55;101607.78;;;4.28;100.00
6565;BME280;3316;44.118;27.258;2023-03-13T01:03:22;101601.22;;;4.12;100.00
6565;BME280;3316;44.118;27.258;2023-03-13T01:05:56;101600.56;;;4.19;100.00
6565;BME280;3316;44.118;27.258;2023-03-13T01:08:22;101592.00;;;4.23;100.00
6565;BME280;3316;44.118;27.258;2023-03-13T01:10:47;101599.09;;;4.27;100.00
6565;BME280;3316;44.118;27.258;2023-03-13T01:13:13;101599.91;;;4.25;100.00
6565;BME280;3316;44.118;27.258;2023-03-13T01:15:38;101596.59;;;4.30;100.00
6565;BME280;3316;44.118;27.258;2023-03-13T01:18:04;101561.94;;;4.05;100.00
6565;BME280;3316;44.118;27.258;2023-03-13T01:20:30;101593.53;;;4.15;100.00
6565;BME280;3316;44.118;27.258;2023-03-13T01:22:55;101581.09;;;4.07;100.00
6565;BME280;3316;44.118;27.258;2023-03-13T01:25:21;101591.97;;;4.22;100.00
6565;BME280;3316;44.118;27.258;2023-03-13T01:27:46;101575.97;;;4.10;100.00
6565;BME280;3316;44.118;27.258;2023-03-13T01:30:11;101587.13;;;4.06;100.00
6565;BME280;3316;44.118;27.258;2023-03-13T01:32:37;101582.19;;;4.13;100.00
6565;BME280;3316;44.118;27.258;2023-03-13T01:35:03;101599.34;;;4.08;100.00
6565;BME280;3316;44.118;27.258;2023-03-13T01:37:28;101598.78;;;4.17;100.00
6565;BME280;3316;44.118;27.258;2023-03-13T01:39:53;101604.53;;;4.07;100.00
6565;BME280;3316;44.118;27.258;2023-03-13T01:42:19;101598.88;;;3.93;100.00
6565;BME280;3316;44.118;27.258;2023-03-13T01:44:50;101599.63;;;3.89;100.00
6565;BME280;3316;44.118;27.258;2023-03-13T01:47:15;101612.84;;;3.95;100.00
6565;BME280;3316;44.118;27.258;2023-03-13T01:49:41;101624.34;;;4.02;100.00
6565;BME280;3316;44.118;27.258;2023-03-13T01:52:21;101612.69;;;3.91;100.00
6565;BME280;3316;44.118;27.258;2023-03-13T01:55:04;101584.53;;;3.79;100.00
6565;BME280;3316;44.118;27.258;2023-03-13T01:57:38;101627.56;;;3.95;100.00
6565;BME280;3316;44.118;27.258;2023-03-13T02:00:14;101638.47;;;3.83;100.00
6565;BME280;3316;44.118;27.258;2023-03-13T02:02:48;101646.03;;;3.76;100.00
6565;BME280;3316;44.118;27.258;2023-03-13T02:05:16;101647.69;;;3.74;100.00
6565;BME280;3316;44.118;27.258;2023-03-13T02:08:05;101644.13;;;3.70;100.00
6565;BME280;3316;44.118;27.258;2023-03-13T02:10:38;101650.56;;;3.81;100.00
6565;BME280;3316;44.118;27.258;2023-03-13T02:13:06;101651.13;;;3.73;100.00
6565;BME280;3316;44.118;27.258;2023-03-13T02:15:32;101641.34;;;3.66;100.00
6565;BME280;3316;44.118;27.258;2023-03-13T02:17:59;101620.00;;;3.49;100.00
6565;BME280;3316;44.118;27.258;2023-03-13T02:20:24;101650.09;;;3.68;100.00
6565;BME280;3316;44.118;27.258;2023-03-13T02:23:07;101667.44;;;3.67;100.00
6565;BME280;3316;44.118;27.258;2023-03-13T02:25:41;101667.91;;;3.55;100.00
6565;BME280;3316;44.118;27.258;2023-03-13T02:28:15;101675.88;;;3.60;100.00
6565;BME280;3316;44.118;27.258;2023-03-13T02:30:43;101687.94;;;3.58;100.00
6565;BME280;3316;44.118;27.258;2023-03-13T02:33:11;101681.16;;;3.38;100.00
6565;BME280;3316;44.118;27.258;2023-03-13T02:35:37;101691.97;;;3.25;100.00
6565;BME280;3316;44.118;27.258;2023-03-13T02:38:06;101690.81;;;3.17;100.00
6565;BME280;3316;44.118;27.258;2023-03-13T02:40:36;101673.59;;;3.20;100.00
6565;BME280;3316;44.118;27.258;2023-03-13T02:43:09;101671.78;;;3.18;100.00
6565;BME280;3316;44.118;27.258;2023-03-13T02:45:35;101685.09;;;3.27;100.00
6565;BME280;3316;44.118;27.258;2023-03-13T02:48:00;101689.09;;;3.17;100.00
6565;BME280;3316;44.118;27.258;2023-03-13T02:50:26;101694.56;;;3.25;100.00
6565;BME280;3316;44.118;27.258;2023-03-13T02:52:58;101660.97;;;3.07;100.00
6565;BME280;3316;44.118;27.258;2023-03-13T02:55:28;101700.56;;;3.24;100.00
6565;BME280;3316;44.118;27.258;2023-03-13T02:57:55;101710.47;;;3.10;100.00
6565;BME280;3316;44.118;27.258;2023-03-13T03:00:20;101699.94;;;3.06;100.00
6565;BME280;3316;44.118;27.258;2023-03-13T03:02:51;101660.22;;;2.86;100.00
6565;BME280;3316;44.118;27.258;2023-03-13T03:05:16;101698.94;;;3.02;100.00
6565;BME280;3316;44.118;27.258;2023-03-13T03:07:41;101696.50;;;3.07;100.00
6565;BME280;3316;44.118;27.258;2023-03-13T03:10:07;101709.00;;;3.17;100.00
6565;BME280;3316;44.118;27.258;2023-03-13T03:12:33;101674.03;;;3.09;100.00
6565;BME280;3316;44.118;27.258;2023-03-13T03:14:58;101707.28;;;3.17;100.00
6565;BME280;3316;44.118;27.258;2023-03-13T03:17:24;101718.28;;;3.10;100.00
6565;BME280;3316;44.118;27.258;2023-03-13T03:19:49;101713.09;;;3.10;100.00
6565;BME280;3316;44.118;27.258;2023-03-13T03:22:14;101680.19;;;2.65;100.00
6565;BME280;3316;44.118;27.258;2023-03-13T03:24:40;101710.25;;;2.81;100.00
6565;BME280;3316;44.118;27.258;2023-03-13T03:27:05;101717.91;;;2.78;100.00
6565;BME280;3316;44.118;27.258;2023-03-13T03:29:31;101737.19;;;2.83;100.00
6565;BME280;3316;44.118;27.258;2023-03-13T03:31:56;101737.75;;;2.76;100.00
6565;BME280;3316;44.118;27.258;2023-03-13T03:34:21;101736.25;;;2.81;100.00
6565;BME280;3316;44.118;27.258;2023-03-13T03:36:47;101744.66;;;2.75;100.00
6565;BME280;3316;44.118;27.258;2023-03-13T03:39:12;101736.72;;;2.70;100.00
6565;BME280;3316;44.118;27.258;2023-03-13T03:41:38;101744.44;;;2.69;100.00
6565;BME280;3316;44.118;27.258;2023-03-13T03:44:04;101768.13;;;2.77;100.00
6565;BME280;3316;44.118;27.258;2023-03-13T03:46:29;101765.78;;;2.83;100.00
6565;BME280;3316;44.118;27.258;2023-03-13T03:48:55;101740.00;;;2.66;100.00
6565;BME280;3316;44.118;27.258;2023-03-13T03:51:21;101741.31;;;2.55;100.00
6565;BME280;3316;44.118;27.258;2023-03-13T03:53:46;101752.09;;;2.66;100.00
6565;BME280;3316;44.118;27.258;2023-03-13T03:56:12;101727.13;;;2.47;100.00
6565;BME280;3316;44.118;27.258;2023-03-13T03:58:37;101775.84;;;2.75;100.00
6565;BME280;3316;44.118;27.258;2023-03-13T04:01:03;101786.66;;;2.86;100.00
6565;BME280;3316;44.118;27.258;2023-03-13T04:03:29;101790.69;;;2.78;100.00
6565;BME280;3316;44.118;27.258;2023-03-13T04:05:54;101800.63;;;2.88;100.00
6565;BME280;3316;44.118;27.258;2023-03-13T04:08:20;101791.56;;;2.78;100.00
6565;BME280;3316;44.118;27.258;2023-03-13T04:10:46;101813.66;;;2.89;100.00
6565;BME280;3316;44.118;27.258;2023-03-13T04:13:11;101814.25;;;2.82;100.00
6565;BME280;3316;44.118;27.258;2023-03-13T04:15:38;101817.09;;;2.88;100.00
6565;BME280;3316;44.118;27.258;2023-03-13T04:18:03;101824.06;;;2.89;100.00
6565;BME280;3316;44.118;27.258;2023-03-13T04:20:29;101810.72;;;2.80;100.00
6565;BME280;3316;44.118;27.258;2023-03-13T04:22:54;101832.50;;;2.84;100.00
6565;BME280;3316;44.118;27.258;2023-03-13T04:25:20;101840.94;;;2.78;100.00
6565;BME280;3316;44.118;27.258;2023-03-13T04:27:45;101837.34;;;2.75;100.00
6565;BME280;3316;44.118;27.258;2023-03-13T04:30:11;101843.59;;;2.80;100.00
6565;BME280;3316;44.118;27.258;2023-03-13T04:32:37;101840.19;;;2.81;100.00
6565;BME280;3316;44.118;27.258;2023-03-13T04:35:03;101820.88;;;2.74;100.00
6565;BME280;3316;44.118;27.258;2023-03-13T04:37:29;101849.50;;;2.96;100.00
6565;BME280;3316;44.118;27.258;2023-03-13T04:39:54;101859.41;;;3.06;100.00
6565;BME280;3316;44.118;27.258;2023-03-13T04:42:20;101860.28;;;3.07;100.00
6565;BME280;3316;44.118;27.258;2023-03-13T04:44:45;101851.25;;;2.97;100.00
6565;BME280;3316;44.118;27.258;2023-03-13T04:47:11;101860.44;;;3.10;100.00
6565;BME280;3316;44.118;27.258;2023-03-13T04:49:36;101855.38;;;3.14;100.00
6565;BME280;3316;44.118;27.258;2023-03-13T04:52:02;101860.97;;;3.23;100.00
6565;BME280;3316;44.118;27.258;2023-03-13T04:54:28;101870.66;;;3.73;100.00
6565;BME280;3316;44.118;27.258;2023-03-13T04:56:53;101873.09;;;4.93;100.00
6565;BME280;3316;44.118;27.258;2023-03-13T04:59:19;101879.25;;;6.09;100.00
6565;BME280;3316;44.118;27.258;2023-03-13T05:01:44;101879.09;;;7.41;94.04
6565;BME280;3316;44.118;27.258;2023-03-13T05:04:10;101870.31;;;8.23;81.69
6565;BME280;3316;44.118;27.258;2023-03-13T05:06:36;101879.44;;;8.90;73.66
6565;BME280;3316;44.118;27.258;2023-03-13T05:09:02;101886.81;;;9.14;69.87
6565;BME280;3316;44.118;27.258;2023-03-13T05:11:28;101888.34;;;9.60;66.47
6565;BME280;3316;44.118;27.258;2023-03-13T05:13:54;101888.81;;;9.95;64.13
6565;BME280;3316;44.118;27.258;2023-03-13T05:16:19;101888.16;;;10.11;62.13
6565;BME280;3316;44.118;27.258;2023-03-13T05:18:45;101892.88;;;9.71;61.83
6565;BME280;3316;44.118;27.258;2023-03-13T05:21:10;101876.34;;;9.17;63.95
6565;BME280;3316;44.118;27.258;2023-03-13T05:23:36;101875.66;;;9.95;62.29
6565;BME280;3316;44.118;27.258;2023-03-13T05:26:01;101905.56;;;10.85;58.89
6565;BME280;3316;44.118;27.258;2023-03-13T05:28:27;101906.97;;;11.53;56.97
6565;BME280;3316;44.118;27.258;2023-03-13T05:30:52;101902.06;;;12.26;53.66
6565;BME280;3316;44.118;27.258;2023-03-13T05:33:18;101895.97;;;12.74;52.21
6565;BME280;3316;44.118;27.258;2023-03-13T05:35:44;101895.09;;;13.43;49.04
6565;BME280;3316;44.118;27.258;2023-03-13T05:38:11;101901.00;;;14.21;47.35
6565;BME280;3316;44.118;27.258;2023-03-13T05:40:37;101908.00;;;14.38;46.10
6565;BME280;3316;44.118;27.258;2023-03-13T05:43:02;101912.41;;;14.40;45.40
6565;BME280;3316;44.118;27.258;2023-03-13T05:45:28;101909.81;;;14.22;45.61
6565;BME280;3316;44.118;27.258;2023-03-13T05:47:53;101925.50;;;14.64;45.05
6565;BME280;3316;44.118;27.258;2023-03-13T05:50:18;101915.19;;;15.37;43.39
6565;BME280;3316;44.118;27.258;2023-03-13T05:52:44;101923.22;;;16.15;41.66
6565;BME280;3316;44.118;27.258;2023-03-13T05:55:09;101929.41;;;16.12;41.60
6565;BME280;3316;44.118;27.258;2023-03-13T05:57:35;101931.00;;;16.28;40.70
6565;BME280;3316;44.118;27.258;2023-03-13T06:00:00;101934.63;;;15.42;41.99
6565;BME280;3316;44.118;27.258;2023-03-13T06:02:26;101945.34;;;15.26;42.46
6565;BME280;3316;44.118;27.258;2023-03-13T06:04:52;101937.00;;;14.57;43.46
6565;BME280;3316;44.118;27.258;2023-03-13T06:07:17;101933.56;;;14.42;43.62
6565;BME280;3316;44.118;27.258;2023-03-13T06:09:43;101932.81;;;14.15;43.60
6565;BME280;3316;44.118;27.258;2023-03-13T06:12:10;101952.72;;;14.87;43.67
6565;BME280;3316;44.118;27.258;2023-03-13T06:14:35;101948.09;;;15.12;42.88
6565;BME280;3316;44.118;27.258;2023-03-13T06:17:03;101955.59;;;14.53;43.53
6565;BME280;3316;44.118;27.258;2023-03-13T06:19:29;101948.41;;;14.76;43.28
6565;BME280;3316;44.118;27.258;2023-03-13T06:21:55;101951.72;;;15.02;42.63
6565;BME280;3316;44.118;27.258;2023-03-13T06:24:20;101954.09;;;15.43;42.13
6565;BME280;3316;44.118;27.258;2023-03-13T06:26:49;101952.31;;;15.40;42.28
6565;BME280;3316;44.118;27.258;2023-03-13T06:29:15;101958.63;;;16.12;40.99
6565;BME280;3316;44.118;27.258;2023-03-13T06:31:41;101945.31;;;16.14;40.51
6565;BME280;3316;44.118;27.258;2023-03-13T06:34:07;101956.47;;;17.04;39.02
6565;BME280;3316;44.118;27.258;2023-03-13T06:36:33;101898.94;;;17.00;38.35
6565;BME280;3316;44.118;27.258;2023-03-13T06:38:58;101951.69;;;17.75;37.89
6565;BME280;3316;44.118;27.258;2023-03-13T06:41:24;101952.53;;;18.23;36.98
6565;BME280;3316;44.118;27.258;2023-03-13T06:43:49;101955.56;;;18.48;36.89
6565;BME280;3316;44.118;27.258;2023-03-13T06:46:17;101957.63;;;19.81;35.23
6565;BME280;3316;44.118;27.258;2023-03-13T06:48:43;101933.19;;;21.11;32.99
6565;BME280;3316;44.118;27.258;2023-03-13T06:51:13;101933.91;;;21.42;32.15
6565;BME280;3316;44.118;27.258;2023-03-13T06:53:39;101935.22;;;21.81;32.08
6565;BME280;3316;44.118;27.258;2023-03-13T06:56:05;101951.16;;;21.60;31.41
6565;BME280;3316;44.118;27.258;2023-03-13T06:58:31;101927.63;;;21.68;31.29
6565;BME280;3316;44.118;27.258;2023-03-13T07:00:57;101942.66;;;21.21;32.00
6565;BME280;3316;44.118;27.258;2023-03-13T07:03:22;101948.31;;;21.40;31.80
6565;BME280;3316;44.118;27.258;2023-03-13T07:05:57;101939.06;;;21.48;31.42
6565;BME280;3316;44.118;27.258;2023-03-13T07:08:22;101939.06;;;22.90;30.05
6565;BME280;3316;44.118;27.258;2023-03-13T07:10:50;101913.50;;;23.65;28.74
6565;BME280;3316;44.118;27.258;2023-03-13T07:13:16;101938.47;;;24.46;28.07
6565;BME280;3316;44.118;27.258;2023-03-13T07:15:44;101938.69;;;23.21;28.65
6565;BME280;3316;44.118;27.258;2023-03-13T07:18:10;101928.88;;;22.53;29.53
6565;BME280;3316;44.118;27.258;2023-03-13T07:20:35;101930.97;;;23.13;29.55
6565;BME280;3316;44.118;27.258;2023-03-13T07:23:00;101935.13;;;24.02;28.52
6565;BME280;3316;44.118;27.258;2023-03-13T07:25:26;101919.28;;;24.72;27.53
6565;BME280;3316;44.118;27.258;2023-03-13T07:27:51;101939.00;;;24.73;27.60
6565;BME280;3316;44.118;27.258;2023-03-13T07:30:18;101943.50;;;24.91;27.67
6565;BME280;3316;44.118;27.258;2023-03-13T07:32:44;101944.47;;;25.77;27.00
6565;BME280;3316;44.118;27.258;2023-03-13T07:35:09;101928.19;;;26.12;26.56
6565;BME280;3316;44.118;27.258;2023-03-13T07:37:34;101933.63;;;26.59;25.67
6565;BME280;3316;44.118;27.258;2023-03-13T07:40:00;101905.91;;;25.23;26.70
6565;BME280;3316;44.118;27.258;2023-03-13T07:42:25;101927.03;;;25.49;26.96
6565;BME280;3316;44.118;27.258;2023-03-13T07:44:52;101929.47;;;25.71;27.06
6565;BME280;3316;44.118;27.258;2023-03-13T07:47:17;101934.78;;;25.38;26.15
6565;BME280;3316;44.118;27.258;2023-03-13T07:49:43;101928.19;;;24.91;26.78
6565;BME280;3316;44.118;27.258;2023-03-13T07:52:10;101919.56;;;25.37;25.77
6565;BME280;3316;44.118;27.258;2023-03-13T07:54:36;101926.66;;;23.29;27.25
6565;BME280;3316;44.118;27.258;2023-03-13T07:57:02;101923.97;;;22.66;28.80
6565;BME280;3316;44.118;27.258;2023-03-13T07:59:27;101922.34;;;20.88;30.75
6565;BME280;3316;44.118;27.258;2023-03-13T08:01:53;101917.16;;;20.54;31.88
6565;BME280;3316;44.118;27.258;2023-03-13T08:04:18;101906.84;;;21.50;30.86
6565;BME280;3316;44.118;27.258;2023-03-13T08:06:44;101915.09;;;23.07;29.30
6565;BME280;3316;44.118;27.258;2023-03-13T08:09:09;101902.59;;;23.88;28.25
6565;BME280;3316;44.118;27.258;2023-03-13T08:11:38;101920.50;;;24.46;27.71
6565;BME280;3316;44.118;27.258;2023-03-13T08:14:05;101924.31;;;24.04;27.65
6565;BME280;3316;44.118;27.258;2023-03-13T08:16:32;101928.19;;;23.15;28.62
6565;BME280;3316;44.118;27.258;2023-03-13T08:18:59;101929.03;;;22.95;29.01
6565;BME280;3316;44.118;27.258;2023-03-13T08:21:30;101931.50;;;22.55;29.38
6565;BME280;3316;44.118;27.258;2023-03-13T08:23:58;101926.59;;;22.89;28.37
6565;BME280;3316;44.118;27.258;2023-03-13T08:26:26;101908.19;;;22.34;28.54
6565;BME280;3316;44.118;27.258;2023-03-13T08:29:05;101929.69;;;23.00;28.83
6565;BME280;3316;44.118;27.258;2023-03-13T08:31:33;101939.13;;;23.10;28.67
6565;BME280;3316;44.118;27.258;2023-03-13T08:33:59;101918.00;;;22.35;29.04
6565;BME280;3316;44.118;27.258;2023-03-13T08:36:27;101931.41;;;23.02;28.54
6565;BME280;3316;44.118;27.258;2023-03-13T08:38:56;101934.66;;;23.93;27.94
6565;BME280;3316;44.118;27.258;2023-03-13T08:41:24;101914.72;;;24.17;27.35
6565;BME280;3316;44.118;27.258;2023-03-13T08:43:51;101926.69;;;24.48;27.40
6565;BME280;3316;44.118;27.258;2023-03-13T08:46:17;101917.72;;;24.66;26.73
6565;BME280;3316;44.118;27.258;2023-03-13T08:48:43;101912.56;;;24.06;27.65
6565;BME280;3316;44.118;27.258;2023-03-13T08:51:10;101937.56;;;23.48;28.43
6565;BME280;3316;44.118;27.258;2023-03-13T08:53:37;101933.97;;;23.47;28.48
6565;BME280;3316;44.118;27.258;2023-03-13T08:56:03;101920.16;;;22.93;29.38
6565;BME280;3316;44.118;27.258;2023-03-13T08:58:29;101932.69;;;22.92;29.29
6565;BME280;3316;44.118;27.258;2023-03-13T09:01:01;101921.63;;;22.34;29.65
6565;BME280;3316;44.118;27.258;2023-03-13T09:03:27;101921.28;;;20.36;31.79
6565;BME280;3316;44.118;27.258;2023-03-13T09:05:52;101931.47;;;19.61;33.16
6565;BME280;3316;44.118;27.258;2023-03-13T09:08:18;101918.91;;;19.31;33.98
6565;BME280;3316;44.118;27.258;2023-03-13T09:10:43;101920.75;;;19.29;33.20
6565;BME280;3316;44.118;27.258;2023-03-13T09:13:10;101920.22;;;19.15;33.87
6565;BME280;3316;44.118;27.258;2023-03-13T09:15:35;101909.00;;;18.64;33.04
6565;BME280;3316;44.118;27.258;2023-03-13T09:18:02;101903.47;;;18.33;33.38
6565;BME280;3316;44.118;27.258;2023-03-13T09:20:27;101902.38;;;18.02;33.37
6565;BME280;3316;44.118;27.258;2023-03-13T09:22:53;101903.78;;;18.18;35.02
6565;BME280;3316;44.118;27.258;2023-03-13T09:25:18;101899.19;;;18.25;35.87
6565;BME280;3316;44.118;27.258;2023-03-13T09:27:43;101864.44;;;17.90;36.41
6565;BME280;3316;44.118;27.258;2023-03-13T09:30:09;101884.91;;;17.88;35.84
6565;BME280;3316;44.118;27.258;2023-03-13T09:32:35;101895.16;;;17.14;34.76
6565;BME280;3316;44.118;27.258;2023-03-13T09:35:00;101895.84;;;16.73;35.95
6565;BME280;3316;44.118;27.258;2023-03-13T09:37:26;101888.25;;;16.45;36.27
6565;BME280;3316;44.118;27.258;2023-03-13T09:39:51;101886.03;;;16.75;36.50
6565;BME280;3316;44.118;27.258;2023-03-13T09:42:20;101880.81;;;17.21;36.07
6565;BME280;3316;44.118;27.258;2023-03-13T09:44:52;101880.22;;;17.56;35.82
6565;BME280;3316;44.118;27.258;2023-03-13T09:47:24;101880.75;;;17.26;34.99
6565;BME280;3316;44.118;27.258;2023-03-13T09:50:02;101880.94;;;16.63;35.39
6565;BME280;3316;44.118;27.258;2023-03-13T09:52:50;101877.72;;;16.95;35.73
6565;BME280;3316;44.118;27.258;2023-03-13T09:55:31;101874.75;;;17.13;35.37
6565;BME280;3316;44.118;27.258;2023-03-13T09:58:05;101871.94;;;17.24;34.71
6565;BME280;3316;44.118;27.258;2023-03-13T10:00:38;101869.41;;;17.63;34.32
6565;BME280;3316;44.118;27.258;2023-03-13T10:05:32;101867.31;;;16.83;35.27
6565;BME280;3316;44.118;27.258;2023-03-13T10:08:12;101879.06;;;16.04;36.75
6565;BME280;3316;44.118;27.258;2023-03-13T10:13:19;101873.34;;;16.36;36.57
6565;BME280;3316;44.118;27.258;2023-03-13T10:15:55;101867.19;;;16.31;35.90
6565;BME280;3316;44.118;27.258;2023-03-13T10:18:22;101864.19;;;15.93;36.57
6565;BME280;3316;44.118;27.258;2023-03-13T10:20:51;101847.75;;;15.61;36.50
6565;BME280;3316;44.118;27.258;2023-03-13T10:26:21;101852.44;;;15.33;37.48
6565;BME280;3316;44.118;27.258;2023-03-13T10:28:49;101850.69;;;15.34;37.19
6565;BME280;3316;44.118;27.258;2023-03-13T10:33:49;101845.63;;;15.90;36.14
6565;BME280;3316;44.118;27.258;2023-03-13T10:36:15;101850.38;;;16.32;35.47
6565;BME280;3316;44.118;27.258;2023-03-13T10:38:53;101822.97;;;16.83;34.35
6565;BME280;3316;44.118;27.258;2023-03-13T10:43:51;101820.94;;;17.46;33.74
6565;BME280;3316;44.118;27.258;2023-03-13T10:46:31;101828.75;;;17.55;33.96
6565;BME280;3316;44.118;27.258;2023-03-13T10:49:00;101812.13;;;17.87;33.35
6565;BME280;3316;44.118;27.258;2023-03-13T10:51:53;101821.66;;;17.56;32.82
6565;BME280;3316;44.118;27.258;2023-03-13T10:54:22;101810.38;;;17.43;32.24
6565;BME280;3316;44.118;27.258;2023-03-13T10:56:50;101810.00;;;17.16;32.73
6565;BME280;3316;44.118;27.258;2023-03-13T10:59:22;101807.03;;;16.83;33.05
6565;BME280;3316;44.118;27.258;2023-03-13T11:01:49;101799.59;;;17.04;33.40
6565;BME280;3316;44.118;27.258;2023-03-13T11:04:35;101774.81;;;17.02;32.64
6565;BME280;3316;44.118;27.258;2023-03-13T11:07:49;101788.88;;;17.08;31.87
6565;BME280;3316;44.118;27.258;2023-03-13T11:10:27;101796.84;;;17.07;32.30
6565;BME280;3316;44.118;27.258;2023-03-13T11:12:57;101791.16;;;17.26;31.83
6565;BME280;3316;44.118;27.258;2023-03-13T11:15:29;101775.47;;;17.58;31.90
6565;BME280;3316;44.118;27.258;2023-03-13T11:20:35;101786.63;;;17.33;30.52
6565;BME280;3316;44.118;27.258;2023-03-13T11:23:27;101777.53;;;17.43;30.25
6565;BME280;3316;44.118;27.258;2023-03-13T11:26:09;101752.41;;;17.59;30.00
6565;BME280;3316;44.118;27.258;2023-03-13T11:28:59;101772.13;;;17.89;29.65
6565;BME280;3316;44.118;27.258;2023-03-13T11:31:36;101761.38;;;17.55;30.37
6565;BME280;3316;44.118;27.258;2023-03-13T11:34:24;101769.94;;;17.69;29.99
6565;BME280;3316;44.118;27.258;2023-03-13T11:37:09;101725.81;;;17.57;29.70
6565;BME280;3316;44.118;27.258;2023-03-13T11:42:39;101755.72;;;17.26;30.37
6565;BME280;3316;44.118;27.258;2023-03-13T11:53:21;101735.44;;;16.74;31.49
6565;BME280;3316;44.118;27.258;2023-03-13T11:56:02;101745.16;;;16.75;31.05
6565;BME280;3316;44.118;27.258;2023-03-13T12:01:38;101753.13;;;16.75;30.62
6565;BME280;3316;44.118;27.258;2023-03-13T12:04:22;101704.81;;;16.54;30.82
6565;BME280;3316;44.118;27.258;2023-03-13T12:09:48;101727.06;;;16.96;30.98
6565;BME280;3316;44.118;27.258;2023-03-13T12:14:52;101720.38;;;16.75;30.93
6565;BME280;3316;44.118;27.258;2023-03-13T12:20:05;101724.06;;;16.66;31.10
6565;BME280;3316;44.118;27.258;2023-03-13T12:22:44;101688.94;;;16.49;31.08
6565;BME280;3316;44.118;27.258;2023-03-13T12:25:23;101726.81;;;16.60;30.50
6565;BME280;3316;44.118;27.258;2023-03-13T12:28:00;101709.91;;;16.11;30.66
6565;BME280;3316;44.118;27.258;2023-03-13T12:30:53;101706.13;;;16.27;30.76
6565;BME280;3316;44.118;27.258;2023-03-13T12:33:30;101708.69;;;16.33;28.92
6565;BME280;3316;44.118;27.258;2023-03-13T12:36:23;101708.81;;;15.66;29.07
6565;BME280;3316;44.118;27.258;2023-03-13T12:41:41;101714.13;;;15.66;28.68
6565;BME280;3316;44.118;27.258;2023-03-13T12:44:14;101712.94;;;15.88;29.46
6565;BME280;3316;44.118;27.258;2023-03-13T12:46:47;101709.28;;;15.97;28.24
6565;BME280;3316;44.118;27.258;2023-03-13T12:50:06;101710.88;;;16.05;29.10
6565;BME280;3316;44.118;27.258;2023-03-13T12:55:28;101698.66;;;16.52;28.62
6565;BME280;3316;44.118;27.258;2023-03-13T13:00:27;101693.88;;;16.19;28.84
6565;BME280;3316;44.118;27.258;2023-03-13T13:05:57;101694.25;;;16.46;29.16
6565;BME280;3316;44.118;27.258;2023-03-13T13:08:25;101701.91;;;16.14;28.87
6565;BME280;3316;44.118;27.258;2023-03-13T13:10:50;101705.63;;;16.04;29.43
6565;BME280;3316;44.118;27.258;2023-03-13T13:13:27;101706.44;;;16.09;29.85
6565;BME280;3316;44.118;27.258;2023-03-13T13:16:11;101698.88;;;15.82;29.66
6565;BME280;3316;44.118;27.258;2023-03-13T13:18:41;101702.31;;;15.88;29.85
6565;BME280;3316;44.118;27.258;2023-03-13T13:23:43;101688.56;;;16.17;29.63
6565;BME280;3316;44.118;27.258;2023-03-13T13:28:59;101698.25;;;16.21;28.82
6565;BME280;3316;44.118;27.258;2023-03-13T13:37:00;101684.84;;;16.29;29.05
6565;BME280;3316;44.118;27.258;2023-03-13T13:39:40;101682.22;;;16.27;28.85
6565;BME280;3316;44.118;27.258;2023-03-13T13:47:44;101664.91;;;15.46;29.84
6565;BME280;3316;44.118;27.258;2023-03-13T13:50:22;101619.72;;;14.85;29.66
6565;BME280;3316;44.118;27.258;2023-03-13T13:52:49;101666.38;;;14.99;30.23
6565;BME280;3316;44.118;27.258;2023-03-13T13:57:47;101655.72;;;15.04;29.68
6565;BME280;3316;44.118;27.258;2023-03-13T14:00:25;101657.59;;;14.94;29.96
6565;BME280;3316;44.118;27.258;2023-03-13T14:02:55;101659.38;;;14.92;30.07
6565;BME280;3316;44.118;27.258;2023-03-13T14:05:31;101662.03;;;14.94;30.24
6565;BME280;3316;44.118;27.258;2023-03-13T14:08:02;101659.28;;;15.03;30.17
6565;BME280;3316;44.118;27.258;2023-03-13T14:10:40;101655.63;;;15.10;30.23
6565;BME280;3316;44.118;27.258;2023-03-13T14:13:17;101651.09;;;15.19;29.97
6565;BME280;3316;44.118;27.258;2023-03-13T14:15:46;101644.22;;;15.05;30.17
6565;BME280;3316;44.118;27.258;2023-03-13T14:23:39;101631.09;;;15.61;29.93
6565;BME280;3316;44.118;27.258;2023-03-13T14:26:19;101628.31;;;15.69;30.84